KLM55T EHAM-EHEH
Flight info
| Callsign | KLM55T |
|---|---|
| Flight time | 0h 17m |
| Altitude | 7000 |
| Route | LOPIK |
| Aircraft | A20N/M-SDE2E3FGHIRWXY/LB1 |
Departure
| Time | 2026-05-04 00:42 |
|---|---|
| Airport | Amsterdam Airport Schiphol (EHAM) |
Arrival
| Time | 2026-05-04 00:59 |
|---|---|
| Airport | Eindhoven Airport (EHEH) |
| Time | Latitude | Longitude | Altitude | Speed | Heading |
|---|---|---|---|---|---|
| 2026-05-04 00:19 | 52.30506 | 4.76552 | -1 ft | 0 kts | 58° |
| 2026-05-04 00:32 | 52.30503 | 4.76543 | -2 ft | 1 kts | 64° |
| 2026-05-04 00:33 | 52.30500 | 4.76533 | -2 ft | 1 kts | 71° |
| 2026-05-04 00:33 | 52.30497 | 4.76515 | -2 ft | 1 kts | 84° |
| 2026-05-04 00:33 | 52.30497 | 4.76505 | -2 ft | 1 kts | 91° |
| 2026-05-04 00:34 | 52.30497 | 4.76496 | -2 ft | 1 kts | 97° |
| 2026-05-04 00:34 | 52.30498 | 4.76484 | -2 ft | 3 kts | 107° |
| 2026-05-04 00:34 | 52.30506 | 4.76457 | -90 ft | 3 kts | 129° |
| 2026-05-04 00:34 | 52.30519 | 4.76437 | 1 ft | 3 kts | 149° |
| 2026-05-04 00:35 | 52.30535 | 4.76421 | -2 ft | 3 kts | 149° |
| 2026-05-04 00:35 | 52.30551 | 4.76406 | -2 ft | 2 kts | 149° |
| 2026-05-04 00:35 | 52.30557 | 4.76399 | 1 ft | 0 kts | 145° |
| 2026-05-04 00:37 | 52.30556 | 4.76400 | 1 ft | 1 kts | 145° |
| 2026-05-04 00:37 | 52.30513 | 4.76439 | -16 ft | 11 kts | 151° |
| 2026-05-04 00:38 | 52.30442 | 4.76506 | -2 ft | 12 kts | 148° |
| 2026-05-04 00:38 | 52.30396 | 4.76555 | -2 ft | 8 kts | 151° |
| 2026-05-04 00:38 | 52.30355 | 4.76629 | -1 ft | 10 kts | 104° |
| 2026-05-04 00:38 | 52.30385 | 4.76750 | 15 ft | 14 kts | 54° |
| 2026-05-04 00:39 | 52.30447 | 4.76919 | -1 ft | 21 kts | 60° |
| 2026-05-04 00:39 | 52.30537 | 4.77154 | -1 ft | 29 kts | 58° |
| 2026-05-04 00:39 | 52.30629 | 4.77396 | -1 ft | 19 kts | 60° |
| 2026-05-04 00:39 | 52.30588 | 4.77529 | -1 ft | 12 kts | 168° |
| 2026-05-04 00:40 | 52.30562 | 4.77547 | -1 ft | 1 kts | 155° |
| 2026-05-04 00:40 | 52.30534 | 4.77568 | -2 ft | 9 kts | 155° |
| 2026-05-04 00:40 | 52.30456 | 4.77638 | -1 ft | 17 kts | 152° |
| 2026-05-04 00:40 | 52.30406 | 4.77612 | -2 ft | 1 kts | 244° |
| 2026-05-04 00:41 | 52.30403 | 4.77607 | -2 ft | 0 kts | 236° |
| 2026-05-04 00:41 | 52.30354 | 4.77482 | -3 ft | 50 kts | 237° |
| 2026-05-04 00:41 | 52.30013 | 4.76593 | -2 ft | 130 kts | 238° |
| 2026-05-04 00:42 | 52.29444 | 4.75095 | 250 ft | 169 kts | 237° |
| 2026-05-04 00:42 | 52.28784 | 4.73382 | 880 ft | 190 kts | 237° |
| 2026-05-04 00:42 | 52.28032 | 4.71445 | 1560 ft | 215 kts | 237° |
| 2026-05-04 00:42 | 52.27230 | 4.69367 | 2675 ft | 216 kts | 237° |
| 2026-05-04 00:43 | 52.26183 | 4.67568 | 2890 ft | 219 kts | 210° |
| 2026-05-04 00:43 | 52.24718 | 4.67005 | 3010 ft | 223 kts | 178° |
| 2026-05-04 00:43 | 52.23265 | 4.67867 | 3142 ft | 232 kts | 146° |
| 2026-05-04 00:43 | 52.22239 | 4.69972 | 3259 ft | 240 kts | 117° |
| 2026-05-04 00:44 | 52.21633 | 4.72511 | 3380 ft | 241 kts | 111° |
| 2026-05-04 00:44 | 52.21071 | 4.75081 | 3497 ft | 241 kts | 113° |
| 2026-05-04 00:44 | 52.20656 | 4.76763 | 3574 ft | 241 kts | 116° |
| 2026-05-04 00:44 | 52.19608 | 4.80252 | 3757 ft | 271 kts | 121° |
| 2026-05-04 00:45 | 52.18693 | 4.82933 | 3873 ft | 270 kts | 122° |
| 2026-05-04 00:45 | 52.17755 | 4.85588 | 3985 ft | 271 kts | 122° |
| 2026-05-04 00:45 | 52.17129 | 4.87347 | 4057 ft | 271 kts | 122° |
| 2026-05-04 00:45 | 52.15815 | 4.90803 | 4217 ft | 270 kts | 132° |
| 2026-05-04 00:46 | 52.14448 | 4.92854 | 4330 ft | 266 kts | 149° |
| 2026-05-04 00:46 | 52.13373 | 4.93882 | 4413 ft | 265 kts | 153° |
| 2026-05-04 00:46 | 52.11787 | 4.95348 | 4533 ft | 265 kts | 153° |
| 2026-05-04 00:46 | 52.10167 | 4.96867 | 4654 ft | 266 kts | 153° |
| 2026-05-04 00:47 | 52.08585 | 4.98358 | 4768 ft | 267 kts | 153° |
| 2026-05-04 00:47 | 52.06981 | 4.99871 | 4894 ft | 267 kts | 153° |
| 2026-05-04 00:47 | 52.05372 | 5.01388 | 4916 ft | 267 kts | 153° |
| 2026-05-04 00:47 | 52.03766 | 5.02900 | 4915 ft | 267 kts | 153° |
| 2026-05-04 00:48 | 52.02159 | 5.04412 | 4921 ft | 267 kts | 153° |
| 2026-05-04 00:48 | 52.00554 | 5.05919 | 4919 ft | 267 kts | 153° |
| 2026-05-04 00:48 | 51.98938 | 5.07435 | 4989 ft | 269 kts | 153° |
| 2026-05-04 00:48 | 51.97309 | 5.08960 | 5482 ft | 272 kts | 153° |
| 2026-05-04 00:49 | 51.95648 | 5.10514 | 5985 ft | 276 kts | 153° |
| 2026-05-04 00:49 | 51.94008 | 5.12052 | 6105 ft | 270 kts | 153° |
| 2026-05-04 00:49 | 51.92322 | 5.13387 | 6222 ft | 268 kts | 163° |
| 2026-05-04 00:49 | 51.90560 | 5.14392 | 6340 ft | 269 kts | 164° |
| 2026-05-04 00:50 | 51.88791 | 5.15404 | 6445 ft | 270 kts | 163° |
| 2026-05-04 00:50 | 51.87024 | 5.16423 | 6558 ft | 270 kts | 163° |
| 2026-05-04 00:50 | 51.85254 | 5.17446 | 6677 ft | 270 kts | 163° |
| 2026-05-04 00:50 | 51.83480 | 5.18472 | 6785 ft | 270 kts | 163° |
| 2026-05-04 00:51 | 51.81703 | 5.19498 | 6894 ft | 272 kts | 163° |
| 2026-05-04 00:51 | 51.79921 | 5.20526 | 6932 ft | 271 kts | 163° |
| 2026-05-04 00:51 | 51.78141 | 5.21553 | 6935 ft | 272 kts | 163° |
| 2026-05-04 00:51 | 51.76361 | 5.22579 | 6929 ft | 271 kts | 163° |
| 2026-05-04 00:52 | 51.74584 | 5.23602 | 6931 ft | 271 kts | 163° |
| 2026-05-04 00:52 | 51.72812 | 5.24621 | 6817 ft | 269 kts | 163° |
| 2026-05-04 00:52 | 51.71107 | 5.25763 | 6514 ft | 272 kts | 152° |
| 2026-05-04 00:52 | 51.69674 | 5.27825 | 6135 ft | 277 kts | 129° |
| 2026-05-04 00:53 | 51.68685 | 5.30454 | 5747 ft | 277 kts | 123° |
| 2026-05-04 00:53 | 51.67725 | 5.33141 | 5345 ft | 277 kts | 123° |
| 2026-05-04 00:53 | 51.66755 | 5.35834 | 4948 ft | 276 kts | 122° |
| 2026-05-04 00:53 | 51.65793 | 5.38491 | 4664 ft | 271 kts | 122° |
| 2026-05-04 00:54 | 51.64862 | 5.41060 | 4536 ft | 260 kts | 123° |
| 2026-05-04 00:54 | 51.63923 | 5.43543 | 4138 ft | 261 kts | 127° |
| 2026-05-04 00:54 | 51.62881 | 5.45988 | 3555 ft | 269 kts | 127° |
| 2026-05-04 00:54 | 51.61840 | 5.48435 | 3293 ft | 256 kts | 127° |
| 2026-05-04 00:55 | 51.60787 | 5.50614 | 3154 ft | 236 kts | 142° |
| 2026-05-04 00:55 | 51.59403 | 5.51705 | 3051 ft | 221 kts | 176° |
| 2026-05-04 00:55 | 51.57899 | 5.51464 | 2866 ft | 216 kts | 202° |
| 2026-05-04 00:55 | 51.56586 | 5.50433 | 2617 ft | 205 kts | 214° |
| 2026-05-04 00:56 | 51.55436 | 5.49190 | 2369 ft | 193 kts | 217° |
| 2026-05-04 00:56 | 51.54398 | 5.48004 | 2137 ft | 173 kts | 216° |
| 2026-05-04 00:56 | 51.53476 | 5.46965 | 1918 ft | 153 kts | 216° |
| 2026-05-04 00:56 | 51.52651 | 5.46037 | 1718 ft | 136 kts | 216° |
| 2026-05-04 00:57 | 51.51904 | 5.45196 | 1554 ft | 128 kts | 216° |
| 2026-05-04 00:57 | 51.51197 | 5.44402 | 1384 ft | 123 kts | 216° |
| 2026-05-04 00:57 | 51.50514 | 5.43633 | 1220 ft | 119 kts | 215° |
| 2026-05-04 00:57 | 51.49834 | 5.42869 | 1055 ft | 120 kts | 215° |
| 2026-05-04 00:58 | 51.49150 | 5.42097 | 864 ft | 120 kts | 215° |
| 2026-05-04 00:58 | 51.48454 | 5.41306 | 735 ft | 123 kts | 216° |
| 2026-05-04 00:58 | 51.47755 | 5.40525 | 609 ft | 120 kts | 214° |
| 2026-05-04 00:58 | 51.47084 | 5.39778 | 412 ft | 117 kts | 216° |
| 2026-05-04 00:59 | 51.46417 | 5.39020 | 239 ft | 119 kts | 216° |
| 2026-05-04 00:59 | 51.45739 | 5.38262 | 97 ft | 116 kts | 216° |
| 2026-05-04 00:59 | 51.45183 | 5.37641 | 67 ft | 60 kts | 215° |
| 2026-05-04 00:59 | 51.44985 | 5.37417 | 69 ft | 38 kts | 216° |
| 2026-05-04 01:00 | 51.44751 | 5.37162 | 85 ft | 19 kts | 218° |
| 2026-05-04 01:00 | 51.44762 | 5.37032 | 81 ft | 12 kts | 326° |
| 2026-05-04 01:00 | 51.44772 | 5.37017 | 82 ft | 0 kts | 313° |
| 2026-05-04 01:03 | 51.44785 | 5.36995 | 81 ft | 5 kts | 315° |
| 2026-05-04 01:03 | 51.44825 | 5.36979 | 85 ft | 8 kts | 7° |
| 2026-05-04 01:04 | 51.44898 | 5.37045 | 85 ft | 18 kts | 35° |
| 2026-05-04 01:04 | 51.45023 | 5.37182 | 83 ft | 24 kts | 34° |
| 2026-05-04 01:04 | 51.45088 | 5.37287 | 68 ft | 0 kts | 61° |
| 2026-05-04 01:05 | 51.45096 | 5.37290 | 71 ft | 4 kts | 22° |
| 2026-05-04 01:05 | 51.45157 | 5.37343 | 72 ft | 17 kts | 32° |
| 2026-05-04 01:05 | 51.45249 | 5.37429 | 75 ft | 0 kts | 8° |
| 2026-05-04 01:05 | 51.45282 | 5.37398 | 76 ft | 11 kts | 314° |
| 2026-05-04 01:06 | 51.45338 | 5.37281 | 83 ft | 15 kts | 310° |
| 2026-05-04 01:06 | 51.45418 | 5.37307 | 71 ft | 2 kts | 31° |
| 2026-05-04 01:06 | 51.45453 | 5.37291 | 69 ft | 0 kts | 306° |